Time;durP1;ratioP1;P1;durP2;ratioP2;P2;SDS_P1;SDS_P2;PMS_P1;PMS_P2;Temp;Humidity;BMP_temperature;BMP_pressure;BME280_temperature;BME280_humidity;BME280_pressure;Samples;Min_cycle;Max_cycle;Signal;HPM_P1;HPM_P2
2021/10/28 00:12:25;;;;;;;14.55;12.40;;;;;21.90;100960.00;;;;2078231;28;20316;-55
2021/10/28 00:13:26;;;;;;;12.35;11.05;;;;;21.90;100966.00;;;;2079183;28;20670;-54
2021/10/28 00:14:27;;;;;;;12.65;11.35;;;;;21.90;100973.00;;;;2076693;28;20213;-55
2021/10/28 00:15:38;;;;;;;14.20;12.30;;;;;21.90;100965.00;;;;2073412;28;20206;-56
2021/10/28 00:16:39;;;;;;;13.82;11.80;;;;;21.90;100963.00;;;;2072853;28;20229;-55
2021/10/28 00:18:48;;;;;;;14.15;11.80;;;;;21.90;100965.00;;;;2069957;28;20218;-52
2021/10/28 00:19:48;;;;;;;11.30;10.10;;;;;21.90;100964.00;;;;2070716;28;20586;-53
2021/10/28 00:20:52;;;;;;;12.50;10.70;;;;;21.90;100966.00;;;;2069233;28;20226;-56
2021/10/28 00:21:52;;;;;;;10.93;9.73;;;;;21.90;100962.00;;;;2074917;28;20209;-56
2021/10/28 00:22:53;;;;;;;12.43;11.13;;;;;21.90;100956.00;;;;2079101;28;20670;-55
2021/10/28 00:23:59;;;;;;;11.57;10.38;;;;;21.90;100962.00;;;;2078554;28;20867;-54
2021/10/28 00:24:59;;;;;;;10.98;9.80;;;;;21.90;100963.00;;;;2078212;28;20227;-55
2021/10/28 00:26:00;;;;;;;11.67;10.30;;;;;21.80;100966.00;;;;2076159;28;20214;-53
2021/10/28 00:27:00;;;;;;;11.23;9.73;;;;;21.80;100960.00;;;;2079035;28;20210;-54
2021/10/28 00:28:01;;;;;;;11.40;10.00;;;;;21.90;100953.00;;;;2079250;28;20248;-55
2021/10/28 00:29:03;;;;;;;13.00;9.33;;;;;21.90;100953.00;;;;2078156;28;20706;-55
2021/10/28 00:30:04;;;;;;;12.77;10.35;;;;;21.80;100966.00;;;;2079316;28;20228;-55
2021/10/28 00:31:05;;;;;;;11.57;9.73;;;;;21.80;100954.00;;;;2079224;28;20214;-53
2021/10/28 00:32:06;;;;;;;10.40;9.38;;;;;21.80;100949.00;;;;2079226;28;20507;-55
2021/10/28 00:33:07;;;;;;;10.15;9.10;;;;;21.80;100951.00;;;;2079403;28;20213;-54
2021/10/28 00:34:08;;;;;;;11.17;9.97;;;;;21.90;100956.00;;;;2079382;28;20300;-55
2021/10/28 00:35:09;;;;;;;9.73;8.03;;;;;21.80;100950.00;;;;2078904;28;20198;-53
2021/10/28 00:36:09;;;;;;;10.00;9.00;;;;;21.80;100950.00;;;;2074761;28;20524;-55
2021/10/28 00:37:10;;;;;;;10.77;9.00;;;;;21.80;100943.00;;;;2071284;28;20374;-55
2021/10/28 00:38:10;;;;;;;11.45;9.02;;;;;21.80;100953.00;;;;2071296;28;20225;-55
2021/10/28 00:39:11;;;;;;;9.50;8.60;;;;;21.80;100947.00;;;;2069926;28;20229;-55
2021/10/28 00:40:12;;;;;;;8.90;8.00;;;;;21.80;100952.00;;;;2070976;28;20230;-55
2021/10/28 00:41:12;;;;;;;8.95;8.05;;;;;21.80;100949.00;;;;2071037;28;20217;-54
2021/10/28 00:42:13;;;;;;;9.17;8.13;;;;;21.80;100949.00;;;;2071218;28;20296;-54
2021/10/28 00:43:13;;;;;;;9.47;8.47;;;;;21.80;100948.00;;;;2070657;28;20225;-55
2021/10/28 00:44:14;;;;;;;9.40;8.50;;;;;21.80;100951.00;;;;2074300;28;20221;-55
2021/10/28 00:45:14;;;;;;;9.03;8.20;;;;;21.80;100947.00;;;;2073434;28;20283;-52
2021/10/28 00:46:15;;;;;;;8.93;8.03;;;;;21.80;100948.00;;;;2072653;28;20753;-53
2021/10/28 00:47:15;;;;;;;8.93;7.53;;;;;21.80;100942.00;;;;2072303;28;20249;-55
2021/10/28 00:48:15;;;;;;;8.40;7.40;;;;;21.80;100939.00;;;;2071267;28;20225;-53
2021/10/28 00:49:16;;;;;;;8.20;7.33;;;;;21.80;100945.00;;;;2069781;28;20229;-54
2021/10/28 00:50:16;;;;;;;8.53;7.73;;;;;21.80;100942.00;;;;2070184;28;20250;-56
2021/10/28 00:51:21;;;;;;;8.03;7.30;;;;;21.80;100943.00;;;;2070262;28;20222;-53
2021/10/28 00:52:21;;;;;;;7.95;7.15;;;;;21.80;100940.00;;;;2075213;28;20221;-56
2021/10/28 00:53:23;;;;;;;9.40;8.03;;;;;21.80;100935.00;;;;2078725;28;20218;-55
2021/10/28 00:54:23;;;;;;;9.27;7.47;;;;;21.80;100931.00;;;;2078681;28;20214;-54
2021/10/28 00:55:24;;;;;;;7.90;7.10;;;;;21.80;100929.00;;;;2078826;28;20276;-58
2021/10/28 00:56:25;;;;;;;7.85;7.05;;;;;21.80;100938.00;;;;2078581;28;20304;-52
2021/10/28 00:57:26;;;;;;;8.57;7.68;;;;;21.80;100933.00;;;;2079028;28;20219;-54
2021/10/28 00:58:26;;;;;;;8.50;7.60;;;;;21.80;100949.00;;;;2079046;28;20216;-52
2021/10/28 00:59:27;;;;;;;7.40;6.70;;;;;21.80;100936.00;;;;2077791;28;20225;-55
2021/10/28 01:00:28;;;;;;;7.75;6.95;;;;;21.80;100938.00;;;;2078682;28;20308;-55
2021/10/28 01:01:29;;;;;;;7.23;6.13;;;;;21.80;100930.00;;;;2078304;28;20741;-55
2021/10/28 01:02:29;;;;;;;8.07;6.90;;;;;21.80;100936.00;;;;2078378;28;20218;-54
2021/10/28 01:03:30;;;;;;;8.43;7.50;;;;;21.70;100938.00;;;;2079218;28;20209;-53
2021/10/28 01:04:31;;;;;;;8.00;6.97;;;;;21.80;100937.00;;;;2079037;28;20213;-55
2021/10/28 01:05:31;;;;;;;7.33;6.50;;;;;21.80;100936.00;;;;2077978;28;20240;-53
2021/10/28 01:06:32;;;;;;;7.87;6.30;;;;;21.70;100941.00;;;;2070333;28;20214;-54
2021/10/28 01:07:33;;;;;;;9.20;6.20;;;;;21.70;100934.00;;;;2077622;28;20777;-55
2021/10/28 01:08:34;;;;;;;6.70;6.10;;;;;21.70;100935.00;;;;2077926;28;20452;-53
2021/10/28 01:09:35;;;;;;;6.55;5.90;;;;;21.70;100940.00;;;;2077510;28;20236;-54
2021/10/28 01:10:36;;;;;;;7.53;6.70;;;;;21.70;100935.00;;;;2078941;28;20260;-53
2021/10/28 01:11:36;;;;;;;6.60;6.00;;;;;21.70;100929.00;;;;2078247;28;20237;-55
2021/10/28 01:12:37;;;;;;;6.87;6.17;;;;;21.70;100933.00;;;;2078516;28;20621;-55
2021/10/28 01:13:38;;;;;;;7.00;6.30;;;;;21.80;100935.00;;;;2078588;28;20206;-54
2021/10/28 01:14:45;;;;;;;6.82;6.13;;;;;21.70;100929.00;;;;2074708;28;20230;-55
2021/10/28 01:15:46;;;;;;;8.27;6.22;;;;;21.70;100931.00;;;;2072963;28;20221;-53
2021/10/28 01:16:46;;;;;;;6.03;5.43;;;;;21.60;100927.00;;;;2072522;28;22629;-54
2021/10/28 01:17:47;;;;;;;6.83;5.90;;;;;21.70;100935.00;;;;2072487;28;21130;-53
2021/10/28 01:18:47;;;;;;;6.60;6.00;;;;;21.70;100934.00;;;;2069662;28;20225;-53
2021/10/28 01:19:51;;;;;;;6.60;5.43;;;;;21.70;100931.00;;;;2069475;28;20289;-53
2021/10/28 01:20:53;;;;;;;6.90;5.85;;;;;21.70;100928.00;;;;2075116;28;20217;-54
2021/10/28 01:21:53;;;;;;;5.90;5.30;;;;;21.70;100925.00;;;;2078749;28;20878;-55
2021/10/28 01:22:54;;;;;;;5.93;5.23;;;;;21.70;100926.00;;;;2079049;28;20228;-54
2021/10/28 01:23:54;;;;;;;7.00;5.70;;;;;21.70;100933.00;;;;2079019;28;20221;-55
2021/10/28 01:24:54;;;;;;;6.57;5.53;;;;;21.70;100931.00;;;;2072550;28;20746;-55
2021/10/28 01:25:57;;;;;;;5.80;5.30;;;;;21.70;100922.00;;;;2071133;28;20628;-55
2021/10/28 01:27:08;;;;;;;6.30;5.68;;;;;21.70;100929.00;;;;2070836;28;20240;-55
2021/10/28 01:28:14;;;;;;;6.15;5.55;;;;;21.70;100930.00;;;;2076280;28;20213;-54
2021/10/28 01:29:14;;;;;;;6.10;5.50;;;;;21.70;100928.00;;;;2077618;28;20213;-53
2021/10/28 01:30:14;;;;;;;5.93;5.33;;;;;21.70;100929.00;;;;2078665;28;20309;-53
2021/10/28 01:31:15;;;;;;;5.90;5.40;;;;;21.70;100929.00;;;;2078709;28;20220;-53
2021/10/28 01:32:15;;;;;;;5.53;4.97;;;;;21.70;100929.00;;;;2078833;28;20825;-55
2021/10/28 01:33:16;;;;;;;5.67;5.17;;;;;21.70;100934.00;;;;2074406;28;20611;-54
2021/10/28 01:34:17;;;;;;;5.60;5.00;;;;;21.70;100932.00;;;;2070543;28;20579;-54
2021/10/28 01:35:19;;;;;;;5.53;4.90;;;;;21.70;100932.00;;;;2070745;28;20245;-55
2021/10/28 01:36:20;;;;;;;6.95;5.15;;;;;21.70;100933.00;;;;2070852;28;20210;-55
2021/10/28 01:37:21;;;;;;;5.95;5.00;;;;;21.70;100934.00;;;;2070688;28;20202;-55
2021/10/28 01:38:21;;;;;;;5.57;5.07;;;;;21.70;100930.00;;;;2070977;28;20214;-55
2021/10/28 01:39:22;;;;;;;6.10;5.50;;;;;21.70;100928.00;;;;2069164;28;20221;-53
2021/10/28 01:40:23;;;;;;;6.37;5.10;;;;;21.70;100928.00;;;;2070782;28;20252;-54
2021/10/28 01:41:25;;;;;;;5.53;4.97;;;;;21.70;100927.00;;;;2070736;28;20457;-55
2021/10/28 01:42:27;;;;;;;5.75;4.70;;;;;21.70;100928.00;;;;2070772;28;20250;-53
2021/10/28 01:43:28;;;;;;;5.75;5.15;;;;;21.70;100926.00;;;;2070782;28;20586;-54
2021/10/28 01:44:29;;;;;;;5.22;4.72;;;;;21.70;100926.00;;;;2071331;28;20214;-53
2021/10/28 01:45:29;;;;;;;5.27;4.77;;;;;21.70;100924.00;;;;2074721;28;20369;-54
2021/10/28 01:46:30;;;;;;;5.30;4.50;;;;;21.70;100919.00;;;;2072169;28;20236;-55
2021/10/28 01:47:30;;;;;;;5.00;4.43;;;;;21.70;100920.00;;;;2071929;28;20297;-54
2021/10/28 01:48:31;;;;;;;5.27;4.77;;;;;21.70;100921.00;;;;2070510;28;20207;-52
2021/10/28 01:49:32;;;;;;;5.20;4.70;;;;;21.70;100925.00;;;;2068794;28;20578;-56
2021/10/28 01:50:32;;;;;;;5.37;4.53;;;;;21.70;100928.00;;;;2070702;28;20215;-55
2021/10/28 01:51:33;;;;;;;4.83;4.43;;;;;21.70;100913.00;;;;2070855;28;20234;-54
2021/10/28 01:52:35;;;;;;;4.90;4.40;;;;;21.70;100920.00;;;;2070628;28;20218;-54
2021/10/28 01:53:40;;;;;;;5.47;4.45;;;;;21.60;100915.00;;;;2070701;28;20755;-54
2021/10/28 01:54:40;;;;;;;4.95;4.47;;;;;21.70;100915.00;;;;2073919;28;20209;-55
2021/10/28 01:55:40;;;;;;;3.90;3.60;;;;;21.70;100925.00;;;;2067228;28;20301;-55
2021/10/28 01:56:44;;;;;;;5.23;4.67;;;;;21.70;100911.00;;;;2070687;28;20214;-53
2021/10/28 01:57:45;;;;;;;4.60;4.20;;;;;21.70;100912.00;;;;2070433;28;20205;-54
2021/10/28 01:58:48;;;;;;;4.40;4.00;;;;;21.70;100914.00;;;;2069157;28;20675;-54
2021/10/28 01:59:49;;;;;;;5.13;4.38;;;;;21.70;100908.00;;;;2069692;28;20469;-52
2021/10/28 02:00:50;;;;;;;3.83;3.53;;;;;21.70;100900.00;;;;2070121;28;20296;-55
2021/10/28 02:01:50;;;;;;;4.53;3.70;;;;;21.70;100905.00;;;;2069936;28;20245;-54
2021/10/28 02:02:51;;;;;;;4.47;4.07;;;;;21.50;100904.00;;;;2069011;28;20842;-55
2021/10/28 02:03:51;;;;;;;4.17;3.87;;;;;21.60;100909.00;;;;2070138;28;20264;-53
2021/10/28 02:04:51;;;;;;;4.53;4.07;;;;;21.60;100901.00;;;;2070623;28;20218;-55
2021/10/28 02:05:52;;;;;;;4.43;3.97;;;;;21.70;100903.00;;;;2070406;28;20323;-55
2021/10/28 02:06:52;;;;;;;6.73;3.90;;;;;21.60;100898.00;;;;2070635;28;20233;-54
2021/10/28 02:07:52;;;;;;;4.90;4.50;;;;;21.60;100903.00;;;;2069927;28;20298;-54
2021/10/28 02:08:53;;;;;;;4.50;4.10;;;;;21.60;100910.00;;;;2068934;28;22260;-55
2021/10/28 02:09:53;;;;;;;4.33;3.93;;;;;21.60;100905.00;;;;2069930;28;20222;-53
2021/10/28 02:10:53;;;;;;;4.30;3.90;;;;;21.60;100897.00;;;;2070341;28;20761;-54
2021/10/28 02:11:54;;;;;;;4.30;3.90;;;;;21.60;100897.00;;;;2070013;28;20564;-55
2021/10/28 02:12:57;;;;;;;4.73;3.80;;;;;21.60;100897.00;;;;2070120;28;20263;-52
2021/10/28 02:14:00;;;;;;;3.70;3.40;;;;;21.60;100896.00;;;;2069975;28;20826;-52
2021/10/28 02:15:00;;;;;;;4.70;4.18;;;;;21.60;100893.00;;;;2073597;28;20572;-55
2021/10/28 02:16:00;;;;;;;3.40;3.10;;;;;21.60;100894.00;;;;2072450;28;20210;-55
2021/10/28 02:17:01;;;;;;;3.87;3.47;;;;;21.60;100897.00;;;;2073057;28;20214;-55
2021/10/28 02:18:01;;;;;;;3.83;3.53;;;;;21.60;100891.00;;;;2070995;28;20276;-56
2021/10/28 02:19:02;;;;;;;4.33;3.80;;;;;21.60;100885.00;;;;2070109;28;20712;-52
2021/10/28 02:20:07;;;;;;;3.80;3.50;;;;;21.60;100887.00;;;;2070646;28;20222;-55
2021/10/28 02:21:07;;;;;;;3.90;3.60;;;;;21.60;100890.00;;;;2070813;28;20453;-55
2021/10/28 02:22:08;;;;;;;4.00;3.60;;;;;21.60;100885.00;;;;2071726;28;20214;-53
2021/10/28 02:23:08;;;;;;;4.57;3.50;;;;;21.60;100888.00;;;;2071363;28;20730;-54
2021/10/28 02:24:08;;;;;;;3.80;3.40;;;;;21.60;100889.00;;;;2071799;28;20694;-54
2021/10/28 02:25:09;;;;;;;3.70;3.40;;;;;21.60;100890.00;;;;2071252;28;20226;-55
2021/10/28 02:26:09;;;;;;;3.50;3.20;;;;;21.60;100889.00;;;;2071741;28;20228;-55
2021/10/28 02:27:10;;;;;;;4.70;3.50;;;;;21.60;100892.00;;;;2072302;28;21040;-55
2021/10/28 02:28:10;;;;;;;3.70;3.40;;;;;21.50;100894.00;;;;2072189;28;20206;-54
2021/10/28 02:29:10;;;;;;;3.93;3.60;;;;;21.60;100896.00;;;;2070959;28;20746;-54
2021/10/28 02:30:12;;;;;;;4.03;3.63;;;;;21.60;100899.00;;;;2072052;28;20229;-55
2021/10/28 02:31:13;;;;;;;4.57;3.60;;;;;21.60;100889.00;;;;2071565;28;20275;-54
2021/10/28 02:32:13;;;;;;;3.87;3.53;;;;;21.60;100892.00;;;;2071894;28;20592;-54
2021/10/28 02:33:13;;;;;;;4.37;3.73;;;;;21.50;100891.00;;;;2080326;28;20206;-54
2021/10/28 02:34:14;;;;;;;4.27;3.87;;;;;21.60;100893.00;;;;2080144;28;20205;-55
2021/10/28 02:35:15;;;;;;;4.53;3.30;;;;;21.60;100904.00;;;;2080237;28;20231;-53
2021/10/28 02:36:17;;;;;;;3.67;3.30;;;;;21.60;100889.00;;;;2080267;28;20570;-54
2021/10/28 02:37:17;;;;;;;3.45;3.15;;;;;21.60;100899.00;;;;2079982;28;20261;-55
2021/10/28 02:38:18;;;;;;;4.90;2.97;;;;;21.60;100895.00;;;;2080405;28;20216;-55
2021/10/28 02:39:18;;;;;;;3.90;3.47;;;;;21.60;100891.00;;;;2079147;28;20205;-54
2021/10/28 02:40:18;;;;;;;4.07;3.70;;;;;21.60;100894.00;;;;2079943;28;20225;-55
2021/10/28 02:41:19;;;;;;;3.47;3.17;;;;;21.60;100892.00;;;;2080165;28;20752;-54
2021/10/28 02:42:19;;;;;;;3.47;3.17;;;;;21.60;100880.00;;;;2080221;28;20309;-54
2021/10/28 02:43:19;;;;;;;3.80;3.50;;;;;21.60;100879.00;;;;2080138;28;20236;-55
2021/10/28 02:44:21;;;;;;;4.20;3.60;;;;;21.60;100877.00;;;;2078227;28;20220;-55
2021/10/28 02:45:21;;;;;;;4.10;3.40;;;;;21.60;100870.00;;;;2075852;28;20221;-55
2021/10/28 02:46:22;;;;;;;3.77;3.40;;;;;21.50;100873.00;;;;2073249;28;20203;-55
2021/10/28 02:47:22;;;;;;;4.23;3.50;;;;;21.60;100873.00;;;;2073094;28;20214;-55
2021/10/28 02:48:23;;;;;;;3.67;3.20;;;;;21.50;100869.00;;;;2072276;28;20768;-53
2021/10/28 02:49:25;;;;;;;4.40;3.53;;;;;21.50;100874.00;;;;2075281;28;20210;-54
2021/10/28 02:50:25;;;;;;;3.38;3.08;;;;;21.50;100868.00;;;;2079809;28;20701;-55
2021/10/28 02:51:25;;;;;;;3.53;3.23;;;;;21.50;100874.00;;;;2080138;28;20225;-53
2021/10/28 02:52:26;;;;;;;3.70;3.40;;;;;21.60;100870.00;;;;2079868;28;20214;-55
2021/10/28 02:53:26;;;;;;;4.00;3.60;;;;;21.50;100872.00;;;;2080365;28;20558;-53
2021/10/28 02:54:26;;;;;;;4.43;4.03;;;;;21.50;100866.00;;;;2080490;28;20589;-52
2021/10/28 02:55:27;;;;;;;3.27;2.97;;;;;21.50;100868.00;;;;2080378;28;20297;-55
2021/10/28 02:56:27;;;;;;;4.10;3.73;;;;;21.50;100871.00;;;;2079957;28;20221;-55
2021/10/28 02:57:28;;;;;;;4.13;3.73;;;;;21.50;100870.00;;;;2078423;28;20209;-55
2021/10/28 02:58:28;;;;;;;3.90;3.60;;;;;21.50;100864.00;;;;2080073;28;20213;-55
2021/10/28 02:59:28;;;;;;;3.80;3.50;;;;;21.50;100862.00;;;;2078516;28;20228;-55
2021/10/28 03:00:29;;;;;;;3.27;3.07;;;;;21.50;100868.00;;;;2079895;28;20222;-53
2021/10/28 03:01:29;;;;;;;3.73;3.43;;;;;21.50;100862.00;;;;2079404;28;20221;-53
2021/10/28 03:02:29;;;;;;;3.70;3.40;;;;;21.50;100859.00;;;;2078984;28;20263;-54
2021/10/28 03:03:30;;;;;;;3.90;3.50;;;;;21.50;100857.00;;;;2079322;28;20214;-55
2021/10/28 03:04:30;;;;;;;3.70;3.33;;;;;21.50;100856.00;;;;2079393;28;20278;-55
2021/10/28 03:05:31;;;;;;;3.50;3.20;;;;;21.50;100851.00;;;;2079212;28;20220;-55
2021/10/28 03:06:34;;;;;;;3.40;3.10;;;;;21.50;100856.00;;;;2079162;28;20300;-54
2021/10/28 03:07:35;;;;;;;3.70;3.40;;;;;21.50;100852.00;;;;2080172;28;20232;-53
2021/10/28 03:08:35;;;;;;;4.67;3.67;;;;;21.50;100861.00;;;;2079900;28;20217;-54
2021/10/28 03:09:36;;;;;;;3.70;3.20;;;;;21.50;100859.00;;;;2078846;28;20236;-53
2021/10/28 03:10:36;;;;;;;4.03;3.63;;;;;21.50;100857.00;;;;2078637;28;20300;-54
2021/10/28 03:11:37;;;;;;;3.33;3.03;;;;;21.50;100856.00;;;;2080020;28;20217;-55
2021/10/28 03:12:41;;;;;;;3.45;3.15;;;;;21.50;100846.00;;;;2080070;28;20206;-54
2021/10/28 03:13:41;;;;;;;3.33;3.03;;;;;21.50;100854.00;;;;2079440;28;20205;-55
2021/10/28 03:15:42;;;;;;;4.00;3.47;;;;;21.50;100854.00;;;;2073340;28;20675;-54
2021/10/28 03:16:57;;;;;;;3.63;3.33;;;;;21.50;100846.00;;;;2072659;28;20617;-55
2021/10/28 03:26:13;;;;;;;3.97;3.33;;;;;21.50;100829.00;;;;2079819;28;20233;-55
2021/10/28 03:27:14;;;;;;;4.40;3.20;;;;;21.50;100838.00;;;;2078866;28;20558;-52
2021/10/28 03:28:19;;;;;;;3.40;2.90;;;;;21.50;100828.00;;;;2079232;28;20961;-53
2021/10/28 03:29:19;;;;;;;3.75;3.40;;;;;21.50;100839.00;;;;2078420;28;20705;-54
2021/10/28 03:30:19;;;;;;;3.50;3.00;;;;;21.50;100831.00;;;;2079285;28;20213;-55
2021/10/28 03:31:20;;;;;;;3.53;3.23;;;;;21.50;100833.00;;;;2079165;28;20738;-52
2021/10/28 03:32:21;;;;;;;3.00;2.70;;;;;21.50;100826.00;;;;2079732;28;20702;-56
2021/10/28 03:33:23;;;;;;;3.05;2.75;;;;;21.50;100826.00;;;;2079763;28;20278;-55
2021/10/28 03:34:24;;;;;;;3.28;3.00;;;;;21.50;100822.00;;;;2079776;28;20209;-55
2021/10/28 03:35:24;;;;;;;3.23;2.80;;;;;21.30;100826.00;;;;2079543;28;20375;-54
2021/10/28 03:38:11;;;;;;;3.50;3.20;;;;;21.50;100821.00;;;;2070269;28;20218;-55
2021/10/28 03:39:27;;;;;;;3.50;3.20;;;;;21.50;100808.00;;;;2068826;28;20226;-54
2021/10/28 03:47:03;;;;;;;2.90;2.70;;;;;21.50;100814.00;;;;2072147;28;20210;-53
2021/10/28 03:58:24;;;;;;;4.13;3.05;;;;;21.40;100812.00;;;;2078943;28;20214;-55
2021/10/28 04:29:26;;;;;;;4.95;3.72;;;;;21.30;100793.00;;;;2077940;28;20302;-53
2021/10/28 04:30:26;;;;;;;4.10;3.70;;;;;21.40;100796.00;;;;2079383;28;20213;-53
2021/10/28 04:31:28;;;;;;;3.70;3.40;;;;;21.40;100792.00;;;;2078956;28;20225;-52
2021/10/28 04:32:29;;;;;;;3.95;3.20;;;;;21.30;100792.00;;;;2079323;28;20221;-55
2021/10/28 04:33:29;;;;;;;3.60;3.30;;;;;21.40;100795.00;;;;2079439;28;20275;-56
2021/10/28 04:34:29;;;;;;;3.77;3.47;;;;;21.30;100792.00;;;;2078648;28;20221;-56
2021/10/28 04:35:30;;;;;;;3.93;3.63;;;;;21.40;100793.00;;;;2078526;28;20217;-54
2021/10/28 04:36:30;;;;;;;4.00;3.60;;;;;21.30;100791.00;;;;2078478;28;20216;-53
2021/10/28 04:37:30;;;;;;;3.27;2.97;;;;;21.30;100786.00;;;;2078586;28;20213;-54
2021/10/28 04:38:31;;;;;;;3.93;3.63;;;;;21.30;100792.00;;;;2073481;28;20213;-55
2021/10/28 04:39:31;;;;;;;3.70;3.40;;;;;21.30;100784.00;;;;2070816;28;20727;-55
2021/10/28 04:40:32;;;;;;;3.50;3.20;;;;;21.30;100788.00;;;;2070729;28;20242;-55
2021/10/28 04:41:32;;;;;;;4.00;3.70;;;;;21.30;100787.00;;;;2070994;28;20213;-53
2021/10/28 04:42:33;;;;;;;3.40;3.10;;;;;21.30;100791.00;;;;2070962;28;20222;-53
2021/10/28 04:43:33;;;;;;;4.47;4.10;;;;;21.40;100787.00;;;;2071059;28;20237;-55
2021/10/28 04:44:34;;;;;;;3.57;3.27;;;;;21.40;100784.00;;;;2071225;28;20773;-54
2021/10/28 04:45:34;;;;;;;3.80;3.50;;;;;21.40;100783.00;;;;2072179;28;20631;-52
2021/10/28 04:46:35;;;;;;;4.20;3.90;;;;;21.40;100780.00;;;;2076436;28;20823;-53
2021/10/28 04:47:35;;;;;;;3.83;3.40;;;;;21.30;100791.00;;;;2071395;28;20590;-55
2021/10/28 04:48:35;;;;;;;3.97;3.67;;;;;21.30;100790.00;;;;2075039;28;20706;-55
2021/10/28 04:49:36;;;;;;;3.73;3.43;;;;;21.30;100771.00;;;;2073281;28;20793;-54
2021/10/28 04:50:36;;;;;;;5.43;3.77;;;;;21.30;100783.00;;;;2070449;28;20237;-55
2021/10/28 04:51:37;;;;;;;4.20;3.77;;;;;21.30;100784.00;;;;2070372;28;20216;-53
2021/10/28 04:52:38;;;;;;;3.37;3.07;;;;;21.30;100795.00;;;;2070358;28;20206;-55
2021/10/28 04:53:38;;;;;;;3.60;3.28;;;;;21.30;100789.00;;;;2071161;28;20324;-55
2021/10/28 04:54:39;;;;;;;3.53;3.23;;;;;21.30;100788.00;;;;2070301;28;20636;-55
2021/10/28 04:55:39;;;;;;;4.17;3.23;;;;;21.30;100783.00;;;;2071054;28;20214;-55
2021/10/28 04:56:40;;;;;;;3.20;2.90;;;;;21.40;100782.00;;;;2071331;28;20476;-55
2021/10/28 04:57:40;;;;;;;4.03;3.20;;;;;21.40;100782.00;;;;2070984;28;20297;-55
2021/10/28 04:58:41;;;;;;;5.47;3.30;;;;;21.40;100784.00;;;;2070569;28;20264;-52
2021/10/28 04:59:41;;;;;;;3.93;3.13;;;;;21.40;100781.00;;;;2077179;28;20637;-55
2021/10/28 05:00:42;;;;;;;3.90;2.47;;;;;21.40;100781.00;;;;2074881;28;20313;-56
2021/10/28 05:01:43;;;;;;;3.53;3.10;;;;;21.40;100777.00;;;;2070739;28;20212;-55
2021/10/28 05:02:43;;;;;;;3.95;2.90;;;;;21.50;100783.00;;;;2071065;28;20296;-55
2021/10/28 05:03:44;;;;;;;2.97;2.67;;;;;21.50;100782.00;;;;2070792;28;20218;-55
2021/10/28 05:04:44;;;;;;;3.17;2.87;;;;;21.50;100779.00;;;;2069340;28;20222;-55
2021/10/28 05:05:44;;;;;;;4.73;2.70;;;;;21.50;100787.00;;;;2070966;28;20704;-55
2021/10/28 05:06:45;;;;;;;4.73;3.07;;;;;21.50;100776.00;;;;2070873;28;20560;-54
2021/10/28 05:07:45;;;;;;;4.00;2.90;;;;;21.50;100778.00;;;;2071052;28;20305;-53
2021/10/28 05:08:46;;;;;;;3.30;3.00;;;;;21.50;100774.00;;;;2070220;28;20222;-54
2021/10/28 05:09:46;;;;;;;5.10;3.13;;;;;21.50;100773.00;;;;2070388;28;20214;-55
2021/10/28 05:10:46;;;;;;;3.20;2.90;;;;;21.50;100774.00;;;;2071147;28;20240;-54
2021/10/28 05:11:47;;;;;;;3.23;2.63;;;;;21.60;100777.00;;;;2070716;28;20276;-55
2021/10/28 05:12:47;;;;;;;3.30;3.00;;;;;21.60;100771.00;;;;2071096;28;20241;-55
2021/10/28 05:13:49;;;;;;;7.20;3.70;;;;;21.60;100775.00;;;;2070442;28;20224;-54
2021/10/28 05:14:50;;;;;;;8.63;3.17;;;;;21.60;100771.00;;;;2070185;28;20230;-54
2021/10/28 05:15:50;;;;;;;3.80;2.90;;;;;21.60;100773.00;;;;2070800;28;20237;-53
2021/10/28 05:16:56;;;;;;;3.23;2.93;;;;;21.60;100770.00;;;;2072378;28;20412;-55
2021/10/28 05:17:56;;;;;;;3.30;3.00;;;;;21.50;100765.00;;;;2071351;28;20217;-54
2021/10/28 05:18:57;;;;;;;4.40;3.10;;;;;21.60;100762.00;;;;2073619;28;20209;-54
2021/10/28 05:19:57;;;;;;;4.40;3.73;;;;;21.60;100772.00;;;;2073169;28;20217;-53
2021/10/28 05:20:58;;;;;;;3.70;3.40;;;;;21.60;100768.00;;;;2070254;28;20470;-54
2021/10/28 05:21:58;;;;;;;4.20;3.80;;;;;21.60;100776.00;;;;2070424;28;20214;-55
2021/10/28 05:22:58;;;;;;;3.30;3.00;;;;;21.60;100777.00;;;;2070895;28;20206;-55
2021/10/28 05:23:59;;;;;;;5.40;3.57;;;;;21.60;100771.00;;;;2070823;28;20722;-55
2021/10/28 05:24:59;;;;;;;7.03;3.07;;;;;21.60;100773.00;;;;2070775;28;20724;-55
2021/10/28 05:26:00;;;;;;;6.80;3.90;;;;;21.60;100771.00;;;;2070643;28;20214;-55
2021/10/28 05:27:00;;;;;;;8.73;3.67;;;;;21.60;100769.00;;;;2064653;28;20209;-55
2021/10/28 05:28:00;;;;;;;6.50;4.07;;;;;21.60;100771.00;;;;2078316;28;20218;-55
2021/10/28 05:29:01;;;;;;;4.00;3.60;;;;;21.60;100775.00;;;;2073392;28;20218;-56
2021/10/28 05:30:03;;;;;;;5.80;4.00;;;;;21.60;100779.00;;;;2070574;28;20558;-56
2021/10/28 05:31:03;;;;;;;5.18;3.60;;;;;21.60;100772.00;;;;2066028;28;20293;-54
2021/10/28 05:32:04;;;;;;;5.73;3.30;;;;;21.60;100773.00;;;;2070299;28;20211;-55
2021/10/28 05:33:04;;;;;;;6.40;3.87;;;;;21.60;100768.00;;;;2069189;28;20871;-53
2021/10/28 05:34:04;;;;;;;5.77;3.93;;;;;21.60;100768.00;;;;2068457;28;20627;-55
2021/10/28 05:35:05;;;;;;;3.57;3.27;;;;;21.60;100764.00;;;;2070520;28;20214;-55
2021/10/28 05:36:06;;;;;;;4.30;3.90;;;;;21.60;100760.00;;;;2070287;28;20238;-55
2021/10/28 05:37:06;;;;;;;7.63;4.53;;;;;21.60;100763.00;;;;2070229;28;20210;-55
2021/10/28 05:38:06;;;;;;;5.23;4.70;;;;;21.60;100765.00;;;;2070500;28;20634;-55
2021/10/28 05:39:07;;;;;;;7.03;6.33;;;;;21.60;100764.00;;;;2069236;28;20355;-53
2021/10/28 05:40:08;;;;;;;8.30;7.27;;;;;21.60;100761.00;;;;2069406;28;20218;-55
2021/10/28 05:41:08;;;;;;;9.80;9.00;;;;;21.60;100763.00;;;;2069135;28;20754;-52
2021/10/28 05:42:09;;;;;;;10.40;9.40;;;;;21.60;100775.00;;;;2069897;28;20891;-55
2021/10/28 05:43:10;;;;;;;13.67;12.27;;;;;21.60;100765.00;;;;2070016;28;20229;-56
2021/10/28 05:44:10;;;;;;;17.20;15.43;;;;;21.60;100702.00;;;;2069690;28;20891;-55
2021/10/28 05:45:10;;;;;;;20.57;18.40;;;;;21.60;100770.00;;;;2068644;28;20469;-53
2021/10/28 05:46:11;;;;;;;27.03;23.80;;;;;21.70;100762.00;;;;2069627;28;20344;-56
2021/10/28 05:47:11;;;;;;;31.47;28.07;;;;;21.70;100763.00;;;;2071634;28;20679;-56
2021/10/28 05:48:12;;;;;;;38.50;32.20;;;;;21.70;100757.00;;;;2072656;28;20313;-56
2021/10/28 05:49:12;;;;;;;39.27;32.27;;;;;21.70;100763.00;;;;2072636;28;20209;-56
2021/10/28 05:50:15;;;;;;;40.13;32.97;;;;;21.70;100760.00;;;;2077413;28;20217;-52
2021/10/28 05:51:17;;;;;;;51.55;41.33;;;;;21.70;100764.00;;;;2073403;28;20241;-52
2021/10/28 05:52:17;;;;;;;56.13;44.05;;;;;21.70;100754.00;;;;2070103;28;20282;-53
2021/10/28 05:53:18;;;;;;;68.73;49.97;;;;;21.70;100752.00;;;;2069926;28;20214;-56
2021/10/28 05:54:19;;;;;;;55.92;45.05;;;;;21.70;100755.00;;;;2070009;28;20249;-54
2021/10/28 05:55:21;;;;;;;68.90;51.23;;;;;21.70;100755.00;;;;2069771;28;20222;-55
2021/10/28 05:56:21;;;;;;;85.00;58.88;;;;;21.70;100758.00;;;;2070208;28;20222;-55
2021/10/28 05:57:22;;;;;;;72.97;53.47;;;;;21.70;100755.00;;;;2069611;28;20304;-55
2021/10/28 05:58:22;;;;;;;85.67;59.20;;;;;21.70;100758.00;;;;2069971;28;20305;-56
2021/10/28 05:59:23;;;;;;;88.80;64.00;;;;;21.70;100757.00;;;;2068234;28;20226;-56
2021/10/28 06:00:25;;;;;;;86.03;60.05;;;;;21.70;100751.00;;;;2069285;28;20230;-53
2021/10/28 06:01:25;;;;;;;91.77;66.20;;;;;21.70;100750.00;;;;2070481;28;20222;-55
2021/10/28 06:02:26;;;;;;;92.23;64.20;;;;;21.70;100748.00;;;;2069869;28;20579;-56
2021/10/28 06:03:26;;;;;;;95.43;65.37;;;;;21.70;100753.00;;;;2070046;28;20214;-55
2021/10/28 06:04:26;;;;;;;100.47;68.90;;;;;21.70;100749.00;;;;2070501;28;20699;-56
2021/10/28 06:05:27;;;;;;;94.60;68.17;;;;;21.70;100750.00;;;;2069996;28;20221;-53
2021/10/28 06:06:27;;;;;;;93.97;64.13;;;;;21.70;100749.00;;;;2070127;28;20218;-53
2021/10/28 06:07:28;;;;;;;100.87;67.77;;;;;21.70;100748.00;;;;2069042;28;20226;-55
2021/10/28 06:08:28;;;;;;;98.83;68.97;;;;;21.70;100740.00;;;;2069720;28;20234;-56
2021/10/28 06:09:29;;;;;;;90.37;66.33;;;;;21.70;100751.00;;;;2068265;28;20942;-56
2021/10/28 06:10:29;;;;;;;86.10;60.67;;;;;21.70;100751.00;;;;2069007;28;20209;-53
2021/10/28 06:11:29;;;;;;;90.00;63.67;;;;;21.70;100749.00;;;;2068466;28;20209;-55